sensor_id;sensor_type;location;lat;lon;timestamp;temperature;humidity
15926;DHT22;8062;53.882;10.642;2022-12-26T00:01:10;6.30;99.90
15926;DHT22;8062;53.882;10.642;2022-12-26T00:02:30;6.30;99.90
15926;DHT22;8062;53.882;10.642;2022-12-26T00:03:50;6.30;99.90
15926;DHT22;8062;53.882;10.642;2022-12-26T00:05:10;6.30;99.90
15926;DHT22;8062;53.882;10.642;2022-12-26T00:06:30;6.30;99.90
15926;DHT22;8062;53.882;10.642;2022-12-26T00:07:49;6.30;99.90
15926;DHT22;8062;53.882;10.642;2022-12-26T00:09:10;6.30;99.90
15926;DHT22;8062;53.882;10.642;2022-12-26T00:10:29;6.30;99.90
15926;DHT22;8062;53.882;10.642;2022-12-26T00:11:49;6.30;99.90
15926;DHT22;8062;53.882;10.642;2022-12-26T00:13:08;6.30;99.90
15926;DHT22;8062;53.882;10.642;2022-12-26T00:14:28;6.40;99.90
15926;DHT22;8062;53.882;10.642;2022-12-26T00:15:47;6.30;99.90
15926;DHT22;8062;53.882;10.642;2022-12-26T00:17:07;6.30;99.90
15926;DHT22;8062;53.882;10.642;2022-12-26T00:18:26;6.30;99.90
15926;DHT22;8062;53.882;10.642;2022-12-26T00:19:46;6.30;99.90
15926;DHT22;8062;53.882;10.642;2022-12-26T00:21:07;6.30;99.90
15926;DHT22;8062;53.882;10.642;2022-12-26T00:22:27;6.30;99.90
15926;DHT22;8062;53.882;10.642;2022-12-26T00:23:47;6.30;99.90
15926;DHT22;8062;53.882;10.642;2022-12-26T00:25:07;6.30;99.90
15926;DHT22;8062;53.882;10.642;2022-12-26T00:26:29;6.30;99.90
15926;DHT22;8062;53.882;10.642;2022-12-26T00:27:49;6.30;99.90
15926;DHT22;8062;53.882;10.642;2022-12-26T00:29:09;6.30;99.90
15926;DHT22;8062;53.882;10.642;2022-12-26T00:30:28;6.20;99.90
15926;DHT22;8062;53.882;10.642;2022-12-26T00:31:48;6.20;99.90
15926;DHT22;8062;53.882;10.642;2022-12-26T00:33:08;6.20;99.90
15926;DHT22;8062;53.882;10.642;2022-12-26T00:34:27;6.30;99.90
15926;DHT22;8062;53.882;10.642;2022-12-26T00:35:47;6.20;99.90
15926;DHT22;8062;53.882;10.642;2022-12-26T00:37:06;6.20;99.90
15926;DHT22;8062;53.882;10.642;2022-12-26T00:38:25;6.20;99.90
15926;DHT22;8062;53.882;10.642;2022-12-26T00:39:45;6.20;99.90
15926;DHT22;8062;53.882;10.642;2022-12-26T00:41:05;6.30;99.90
15926;DHT22;8062;53.882;10.642;2022-12-26T00:42:25;6.30;99.90
15926;DHT22;8062;53.882;10.642;2022-12-26T00:43:44;6.30;99.90
15926;DHT22;8062;53.882;10.642;2022-12-26T00:45:04;6.30;99.90
15926;DHT22;8062;53.882;10.642;2022-12-26T00:46:25;6.40;99.90
15926;DHT22;8062;53.882;10.642;2022-12-26T00:47:45;6.40;99.90
15926;DHT22;8062;53.882;10.642;2022-12-26T00:49:04;6.30;99.90
15926;DHT22;8062;53.882;10.642;2022-12-26T00:50:24;6.30;99.90
15926;DHT22;8062;53.882;10.642;2022-12-26T00:51:43;6.30;99.90
15926;DHT22;8062;53.882;10.642;2022-12-26T00:53:03;6.30;99.90
15926;DHT22;8062;53.882;10.642;2022-12-26T00:54:22;6.40;99.90
15926;DHT22;8062;53.882;10.642;2022-12-26T00:55:42;6.30;99.90
15926;DHT22;8062;53.882;10.642;2022-12-26T00:57:02;6.30;99.90
15926;DHT22;8062;53.882;10.642;2022-12-26T00:58:22;6.30;99.90
15926;DHT22;8062;53.882;10.642;2022-12-26T00:59:42;6.30;99.90
15926;DHT22;8062;53.882;10.642;2022-12-26T01:01:11;6.30;99.90
15926;DHT22;8062;53.882;10.642;2022-12-26T01:02:31;6.30;99.90
15926;DHT22;8062;53.882;10.642;2022-12-26T01:03:59;6.30;99.90
15926;DHT22;8062;53.882;10.642;2022-12-26T01:05:19;6.30;99.90
15926;DHT22;8062;53.882;10.642;2022-12-26T01:06:38;6.30;99.90
15926;DHT22;8062;53.882;10.642;2022-12-26T01:07:58;6.30;99.90
15926;DHT22;8062;53.882;10.642;2022-12-26T01:09:17;6.30;99.90
15926;DHT22;8062;53.882;10.642;2022-12-26T01:10:41;6.30;99.90
15926;DHT22;8062;53.882;10.642;2022-12-26T01:12:02;6.40;99.90
15926;DHT22;8062;53.882;10.642;2022-12-26T01:13:21;6.40;99.90
15926;DHT22;8062;53.882;10.642;2022-12-26T01:14:41;6.40;99.90
15926;DHT22;8062;53.882;10.642;2022-12-26T01:16:00;6.40;99.90
15926;DHT22;8062;53.882;10.642;2022-12-26T01:17:20;6.40;99.90
15926;DHT22;8062;53.882;10.642;2022-12-26T01:18:39;6.40;99.90
15926;DHT22;8062;53.882;10.642;2022-12-26T01:19:59;6.40;99.90
15926;DHT22;8062;53.882;10.642;2022-12-26T01:21:19;6.40;99.90
15926;DHT22;8062;53.882;10.642;2022-12-26T01:22:39;6.40;99.90
15926;DHT22;8062;53.882;10.642;2022-12-26T01:24:00;6.40;99.90
15926;DHT22;8062;53.882;10.642;2022-12-26T01:25:20;6.40;99.90
15926;DHT22;8062;53.882;10.642;2022-12-26T01:26:40;6.30;99.90
15926;DHT22;8062;53.882;10.642;2022-12-26T01:28:00;6.30;99.90
15926;DHT22;8062;53.882;10.642;2022-12-26T01:29:20;6.40;99.90
15926;DHT22;8062;53.882;10.642;2022-12-26T01:30:39;6.30;99.90
15926;DHT22;8062;53.882;10.642;2022-12-26T01:31:59;6.40;99.90
15926;DHT22;8062;53.882;10.642;2022-12-26T01:33:19;6.30;99.90
15926;DHT22;8062;53.882;10.642;2022-12-26T01:34:38;6.30;99.90
15926;DHT22;8062;53.882;10.642;2022-12-26T01:36:04;6.30;99.90
15926;DHT22;8062;53.882;10.642;2022-12-26T01:37:24;6.30;99.90
15926;DHT22;8062;53.882;10.642;2022-12-26T01:38:44;6.30;99.90
15926;DHT22;8062;53.882;10.642;2022-12-26T01:40:04;6.30;99.90
15926;DHT22;8062;53.882;10.642;2022-12-26T01:41:24;6.30;99.90
15926;DHT22;8062;53.882;10.642;2022-12-26T01:42:44;6.40;99.90
15926;DHT22;8062;53.882;10.642;2022-12-26T01:45:48;6.30;99.90
15926;DHT22;8062;53.882;10.642;2022-12-26T01:47:09;6.30;99.90
15926;DHT22;8062;53.882;10.642;2022-12-26T01:48:30;6.30;99.90
15926;DHT22;8062;53.882;10.642;2022-12-26T01:49:53;6.30;99.90
15926;DHT22;8062;53.882;10.642;2022-12-26T01:51:15;6.30;99.90
15926;DHT22;8062;53.882;10.642;2022-12-26T01:52:43;6.40;99.90
15926;DHT22;8062;53.882;10.642;2022-12-26T01:54:04;6.40;99.90
15926;DHT22;8062;53.882;10.642;2022-12-26T01:55:24;6.40;99.90
15926;DHT22;8062;53.882;10.642;2022-12-26T01:56:46;6.40;99.90
15926;DHT22;8062;53.882;10.642;2022-12-26T01:58:11;6.40;99.90
15926;DHT22;8062;53.882;10.642;2022-12-26T01:59:35;6.40;99.90
15926;DHT22;8062;53.882;10.642;2022-12-26T02:00:57;6.40;99.90
15926;DHT22;8062;53.882;10.642;2022-12-26T02:02:20;6.40;99.90
15926;DHT22;8062;53.882;10.642;2022-12-26T02:03:43;6.40;99.90
15926;DHT22;8062;53.882;10.642;2022-12-26T02:05:24;6.40;99.90
15926;DHT22;8062;53.882;10.642;2022-12-26T02:06:54;6.40;99.90
15926;DHT22;8062;53.882;10.642;2022-12-26T02:08:16;6.50;99.90
15926;DHT22;8062;53.882;10.642;2022-12-26T02:09:39;6.50;99.90
15926;DHT22;8062;53.882;10.642;2022-12-26T02:11:00;6.50;99.90
15926;DHT22;8062;53.882;10.642;2022-12-26T02:12:29;6.40;99.90
15926;DHT22;8062;53.882;10.642;2022-12-26T02:13:50;6.50;99.90
15926;DHT22;8062;53.882;10.642;2022-12-26T02:15:14;6.50;99.90
15926;DHT22;8062;53.882;10.642;2022-12-26T02:16:35;6.50;99.90
15926;DHT22;8062;53.882;10.642;2022-12-26T02:17:55;6.50;99.90
15926;DHT22;8062;53.882;10.642;2022-12-26T02:19:33;6.40;99.90
15926;DHT22;8062;53.882;10.642;2022-12-26T02:28:09;6.50;99.90
15926;DHT22;8062;53.882;10.642;2022-12-26T02:30:08;6.50;99.90
15926;DHT22;8062;53.882;10.642;2022-12-26T02:31:58;6.50;99.90
15926;DHT22;8062;53.882;10.642;2022-12-26T02:37:05;6.50;99.90
15926;DHT22;8062;53.882;10.642;2022-12-26T02:43:20;6.50;99.90
15926;DHT22;8062;53.882;10.642;2022-12-26T02:44:58;6.50;99.90
15926;DHT22;8062;53.882;10.642;2022-12-26T02:46:45;6.50;99.90
15926;DHT22;8062;53.882;10.642;2022-12-26T02:50:23;6.60;99.90
15926;DHT22;8062;53.882;10.642;2022-12-26T02:52:15;6.60;99.90
15926;DHT22;8062;53.882;10.642;2022-12-26T02:54:13;6.60;99.90
15926;DHT22;8062;53.882;10.642;2022-12-26T02:55:57;6.50;99.90
15926;DHT22;8062;53.882;10.642;2022-12-26T02:58:00;6.60;99.90
15926;DHT22;8062;53.882;10.642;2022-12-26T02:59:53;6.60;99.90
15926;DHT22;8062;53.882;10.642;2022-12-26T03:01:37;6.50;99.90
15926;DHT22;8062;53.882;10.642;2022-12-26T03:03:26;6.50;99.90
15926;DHT22;8062;53.882;10.642;2022-12-26T03:05:15;6.60;99.90
15926;DHT22;8062;53.882;10.642;2022-12-26T03:06:59;6.50;99.90
15926;DHT22;8062;53.882;10.642;2022-12-26T03:08:59;6.60;99.90
15926;DHT22;8062;53.882;10.642;2022-12-26T03:10:39;6.50;99.90
15926;DHT22;8062;53.882;10.642;2022-12-26T03:14:25;6.60;99.90
15926;DHT22;8062;53.882;10.642;2022-12-26T03:15:59;6.60;99.90
15926;DHT22;8062;53.882;10.642;2022-12-26T03:17:45;6.60;99.90
15926;DHT22;8062;53.882;10.642;2022-12-26T03:19:07;6.60;99.90
15926;DHT22;8062;53.882;10.642;2022-12-26T03:20:35;6.60;99.90
15926;DHT22;8062;53.882;10.642;2022-12-26T03:21:56;6.70;99.90
15926;DHT22;8062;53.882;10.642;2022-12-26T03:23:17;6.60;99.90
15926;DHT22;8062;53.882;10.642;2022-12-26T03:24:38;6.60;99.90
15926;DHT22;8062;53.882;10.642;2022-12-26T03:26:25;6.60;99.90
15926;DHT22;8062;53.882;10.642;2022-12-26T03:28:00;6.70;99.90
15926;DHT22;8062;53.882;10.642;2022-12-26T03:29:21;6.70;99.90
15926;DHT22;8062;53.882;10.642;2022-12-26T03:31:04;6.80;99.90
15926;DHT22;8062;53.882;10.642;2022-12-26T03:32:23;6.80;99.90
15926;DHT22;8062;53.882;10.642;2022-12-26T03:33:45;6.80;99.90
15926;DHT22;8062;53.882;10.642;2022-12-26T03:35:26;6.80;99.90
15926;DHT22;8062;53.882;10.642;2022-12-26T03:37:20;6.80;99.90
15926;DHT22;8062;53.882;10.642;2022-12-26T03:42:46;6.80;99.90
15926;DHT22;8062;53.882;10.642;2022-12-26T03:44:36;6.80;99.90
15926;DHT22;8062;53.882;10.642;2022-12-26T03:46:46;6.80;99.90
15926;DHT22;8062;53.882;10.642;2022-12-26T03:50:40;6.80;99.90
15926;DHT22;8062;53.882;10.642;2022-12-26T03:54:27;6.90;99.90
15926;DHT22;8062;53.882;10.642;2022-12-26T03:56:21;6.90;99.90
15926;DHT22;8062;53.882;10.642;2022-12-26T03:59:55;6.90;99.90
15926;DHT22;8062;53.882;10.642;2022-12-26T04:01:36;6.90;99.90
15926;DHT22;8062;53.882;10.642;2022-12-26T04:03:19;6.90;99.90
15926;DHT22;8062;53.882;10.642;2022-12-26T04:05:02;6.90;99.90
15926;DHT22;8062;53.882;10.642;2022-12-26T04:06:56;6.90;99.90
15926;DHT22;8062;53.882;10.642;2022-12-26T04:08:46;6.90;99.90
15926;DHT22;8062;53.882;10.642;2022-12-26T04:10:35;6.90;99.90
15926;DHT22;8062;53.882;10.642;2022-12-26T04:12:18;6.90;99.90
15926;DHT22;8062;53.882;10.642;2022-12-26T04:14:11;6.90;99.90
15926;DHT22;8062;53.882;10.642;2022-12-26T04:15:55;6.90;99.90
15926;DHT22;8062;53.882;10.642;2022-12-26T04:17:58;6.90;99.90
15926;DHT22;8062;53.882;10.642;2022-12-26T04:21:19;6.90;99.90
15926;DHT22;8062;53.882;10.642;2022-12-26T04:23:12;6.90;99.90
15926;DHT22;8062;53.882;10.642;2022-12-26T04:25:00;6.90;99.90
15926;DHT22;8062;53.882;10.642;2022-12-26T04:26:43;6.90;99.90
15926;DHT22;8062;53.882;10.642;2022-12-26T04:28:22;6.90;99.90
15926;DHT22;8062;53.882;10.642;2022-12-26T04:30:01;6.90;99.90
15926;DHT22;8062;53.882;10.642;2022-12-26T04:31:56;6.90;99.90
15926;DHT22;8062;53.882;10.642;2022-12-26T04:33:58;7.00;99.90
15926;DHT22;8062;53.882;10.642;2022-12-26T04:35:58;7.00;99.90
15926;DHT22;8062;53.882;10.642;2022-12-26T04:37:40;6.90;99.90
15926;DHT22;8062;53.882;10.642;2022-12-26T04:39:22;6.90;99.90
15926;DHT22;8062;53.882;10.642;2022-12-26T04:41:05;6.90;99.90
15926;DHT22;8062;53.882;10.642;2022-12-26T04:42:46;6.90;99.90
15926;DHT22;8062;53.882;10.642;2022-12-26T04:44:26;6.90;99.90
15926;DHT22;8062;53.882;10.642;2022-12-26T04:45:46;6.90;99.90
15926;DHT22;8062;53.882;10.642;2022-12-26T04:47:06;6.90;99.90
15926;DHT22;8062;53.882;10.642;2022-12-26T04:48:26;6.90;99.90
15926;DHT22;8062;53.882;10.642;2022-12-26T04:50:05;7.00;99.90
15926;DHT22;8062;53.882;10.642;2022-12-26T04:51:31;6.90;99.90
15926;DHT22;8062;53.882;10.642;2022-12-26T04:52:50;6.90;99.90
15926;DHT22;8062;53.882;10.642;2022-12-26T04:54:13;6.90;99.90
15926;DHT22;8062;53.882;10.642;2022-12-26T04:55:33;6.90;99.90
15926;DHT22;8062;53.882;10.642;2022-12-26T04:56:56;7.00;99.90
15926;DHT22;8062;53.882;10.642;2022-12-26T04:58:15;7.00;99.90
15926;DHT22;8062;53.882;10.642;2022-12-26T04:59:35;7.00;99.90
15926;DHT22;8062;53.882;10.642;2022-12-26T05:00:55;7.00;99.90
15926;DHT22;8062;53.882;10.642;2022-12-26T05:02:35;7.00;99.90
15926;DHT22;8062;53.882;10.642;2022-12-26T05:04:15;7.00;99.90
15926;DHT22;8062;53.882;10.642;2022-12-26T05:05:54;7.00;99.90
15926;DHT22;8062;53.882;10.642;2022-12-26T05:07:34;7.00;99.90
15926;DHT22;8062;53.882;10.642;2022-12-26T05:09:16;7.00;99.90
15926;DHT22;8062;53.882;10.642;2022-12-26T05:10:55;7.00;99.90
15926;DHT22;8062;53.882;10.642;2022-12-26T05:12:14;7.00;99.90
15926;DHT22;8062;53.882;10.642;2022-12-26T05:13:35;7.00;99.90
15926;DHT22;8062;53.882;10.642;2022-12-26T05:14:54;7.00;99.90
15926;DHT22;8062;53.882;10.642;2022-12-26T05:16:13;7.00;99.90
15926;DHT22;8062;53.882;10.642;2022-12-26T05:17:52;7.00;99.90
15926;DHT22;8062;53.882;10.642;2022-12-26T05:19:30;7.00;99.90
15926;DHT22;8062;53.882;10.642;2022-12-26T05:21:11;7.00;99.90
15926;DHT22;8062;53.882;10.642;2022-12-26T05:22:59;7.00;99.90
15926;DHT22;8062;53.882;10.642;2022-12-26T05:24:40;7.00;99.90
15926;DHT22;8062;53.882;10.642;2022-12-26T05:26:22;7.00;99.90
15926;DHT22;8062;53.882;10.642;2022-12-26T05:28:00;7.00;99.90
15926;DHT22;8062;53.882;10.642;2022-12-26T05:29:39;7.00;99.90
15926;DHT22;8062;53.882;10.642;2022-12-26T05:30:59;7.00;99.90
15926;DHT22;8062;53.882;10.642;2022-12-26T05:32:20;7.00;99.90
15926;DHT22;8062;53.882;10.642;2022-12-26T05:33:58;7.00;99.90
15926;DHT22;8062;53.882;10.642;2022-12-26T05:35:25;7.00;99.90
15926;DHT22;8062;53.882;10.642;2022-12-26T05:36:55;7.00;99.90
15926;DHT22;8062;53.882;10.642;2022-12-26T05:38:17;7.00;99.90
15926;DHT22;8062;53.882;10.642;2022-12-26T05:39:36;7.00;99.90
15926;DHT22;8062;53.882;10.642;2022-12-26T05:40:56;7.00;99.90
15926;DHT22;8062;53.882;10.642;2022-12-26T05:42:16;7.00;99.90
15926;DHT22;8062;53.882;10.642;2022-12-26T05:43:35;7.10;99.90
15926;DHT22;8062;53.882;10.642;2022-12-26T05:44:55;7.10;99.90
15926;DHT22;8062;53.882;10.642;2022-12-26T05:46:14;7.10;99.90
15926;DHT22;8062;53.882;10.642;2022-12-26T05:47:34;7.10;99.90
15926;DHT22;8062;53.882;10.642;2022-12-26T05:48:53;7.10;99.90
15926;DHT22;8062;53.882;10.642;2022-12-26T05:50:13;7.10;99.90
15926;DHT22;8062;53.882;10.642;2022-12-26T05:51:34;7.10;99.90
15926;DHT22;8062;53.882;10.642;2022-12-26T05:52:57;7.10;99.90
15926;DHT22;8062;53.882;10.642;2022-12-26T05:54:17;7.10;99.90
15926;DHT22;8062;53.882;10.642;2022-12-26T05:55:36;7.10;99.90
15926;DHT22;8062;53.882;10.642;2022-12-26T05:56:56;7.10;99.90
15926;DHT22;8062;53.882;10.642;2022-12-26T05:58:16;7.10;99.90
15926;DHT22;8062;53.882;10.642;2022-12-26T05:59:35;7.10;99.90
15926;DHT22;8062;53.882;10.642;2022-12-26T06:02:31;7.10;99.90
15926;DHT22;8062;53.882;10.642;2022-12-26T06:03:54;7.10;99.90
15926;DHT22;8062;53.882;10.642;2022-12-26T06:05:13;7.10;99.90
15926;DHT22;8062;53.882;10.642;2022-12-26T06:06:33;7.20;99.90
15926;DHT22;8062;53.882;10.642;2022-12-26T06:07:52;7.20;99.90
15926;DHT22;8062;53.882;10.642;2022-12-26T06:09:12;7.20;99.90
15926;DHT22;8062;53.882;10.642;2022-12-26T06:10:31;7.20;99.90
15926;DHT22;8062;53.882;10.642;2022-12-26T06:11:51;7.20;99.90
15926;DHT22;8062;53.882;10.642;2022-12-26T06:13:11;7.20;99.90
15926;DHT22;8062;53.882;10.642;2022-12-26T06:14:30;7.20;99.90
15926;DHT22;8062;53.882;10.642;2022-12-26T06:15:49;7.20;99.90
15926;DHT22;8062;53.882;10.642;2022-12-26T06:17:09;7.20;99.90
15926;DHT22;8062;53.882;10.642;2022-12-26T06:18:29;7.10;99.90
15926;DHT22;8062;53.882;10.642;2022-12-26T06:19:48;7.20;99.90
15926;DHT22;8062;53.882;10.642;2022-12-26T06:21:10;7.30;99.90
15926;DHT22;8062;53.882;10.642;2022-12-26T06:22:30;7.30;99.90
15926;DHT22;8062;53.882;10.642;2022-12-26T06:23:50;7.30;99.90
15926;DHT22;8062;53.882;10.642;2022-12-26T06:25:10;7.30;99.90
15926;DHT22;8062;53.882;10.642;2022-12-26T06:26:30;7.30;99.90
15926;DHT22;8062;53.882;10.642;2022-12-26T06:27:50;7.30;99.90
15926;DHT22;8062;53.882;10.642;2022-12-26T06:29:09;7.40;99.90
15926;DHT22;8062;53.882;10.642;2022-12-26T06:30:28;7.40;99.90
15926;DHT22;8062;53.882;10.642;2022-12-26T06:31:48;7.40;99.90
15926;DHT22;8062;53.882;10.642;2022-12-26T06:33:08;7.40;99.90
15926;DHT22;8062;53.882;10.642;2022-12-26T06:34:28;7.40;99.90
15926;DHT22;8062;53.882;10.642;2022-12-26T06:35:47;7.40;99.90
15926;DHT22;8062;53.882;10.642;2022-12-26T06:37:07;7.40;99.90
15926;DHT22;8062;53.882;10.642;2022-12-26T06:38:26;7.40;99.90
15926;DHT22;8062;53.882;10.642;2022-12-26T06:39:46;7.40;99.90
15926;DHT22;8062;53.882;10.642;2022-12-26T06:41:08;7.50;99.90
15926;DHT22;8062;53.882;10.642;2022-12-26T06:42:28;7.50;99.90
15926;DHT22;8062;53.882;10.642;2022-12-26T06:43:48;7.50;99.90
15926;DHT22;8062;53.882;10.642;2022-12-26T06:45:09;7.50;99.90
15926;DHT22;8062;53.882;10.642;2022-12-26T06:46:28;7.50;99.90
15926;DHT22;8062;53.882;10.642;2022-12-26T06:47:48;7.50;99.90
15926;DHT22;8062;53.882;10.642;2022-12-26T06:49:07;7.50;99.90
15926;DHT22;8062;53.882;10.642;2022-12-26T06:50:27;7.50;99.90
15926;DHT22;8062;53.882;10.642;2022-12-26T06:51:46;7.50;99.90
15926;DHT22;8062;53.882;10.642;2022-12-26T06:53:06;7.50;99.90
15926;DHT22;8062;53.882;10.642;2022-12-26T06:54:26;7.50;99.90
15926;DHT22;8062;53.882;10.642;2022-12-26T06:55:46;7.50;99.90
15926;DHT22;8062;53.882;10.642;2022-12-26T06:57:07;7.50;99.90
15926;DHT22;8062;53.882;10.642;2022-12-26T06:58:27;7.60;99.90
15926;DHT22;8062;53.882;10.642;2022-12-26T06:59:46;7.50;99.90
15926;DHT22;8062;53.882;10.642;2022-12-26T07:01:11;7.60;99.90
15926;DHT22;8062;53.882;10.642;2022-12-26T07:02:31;7.60;99.90
15926;DHT22;8062;53.882;10.642;2022-12-26T07:03:52;7.60;99.90
15926;DHT22;8062;53.882;10.642;2022-12-26T07:05:12;7.60;99.90
15926;DHT22;8062;53.882;10.642;2022-12-26T07:06:36;7.60;99.90
15926;DHT22;8062;53.882;10.642;2022-12-26T07:07:56;7.60;99.90
15926;DHT22;8062;53.882;10.642;2022-12-26T07:09:17;7.60;99.90
15926;DHT22;8062;53.882;10.642;2022-12-26T07:10:37;7.60;99.90
15926;DHT22;8062;53.882;10.642;2022-12-26T07:11:56;7.60;99.90
15926;DHT22;8062;53.882;10.642;2022-12-26T07:13:16;7.60;99.90
15926;DHT22;8062;53.882;10.642;2022-12-26T07:14:36;7.60;99.90
15926;DHT22;8062;53.882;10.642;2022-12-26T07:15:59;7.60;99.90
15926;DHT22;8062;53.882;10.642;2022-12-26T07:17:19;7.60;99.90
15926;DHT22;8062;53.882;10.642;2022-12-26T07:18:38;7.60;99.90
15926;DHT22;8062;53.882;10.642;2022-12-26T07:19:58;7.70;99.90
15926;DHT22;8062;53.882;10.642;2022-12-26T07:21:17;7.70;99.90
15926;DHT22;8062;53.882;10.642;2022-12-26T07:22:37;7.70;99.90
15926;DHT22;8062;53.882;10.642;2022-12-26T07:23:57;7.70;99.90
15926;DHT22;8062;53.882;10.642;2022-12-26T07:25:17;7.70;99.90
15926;DHT22;8062;53.882;10.642;2022-12-26T07:26:36;7.70;99.90
15926;DHT22;8062;53.882;10.642;2022-12-26T07:27:56;7.70;99.90
15926;DHT22;8062;53.882;10.642;2022-12-26T07:29:16;7.70;99.90
15926;DHT22;8062;53.882;10.642;2022-12-26T07:30:35;7.80;99.90
15926;DHT22;8062;53.882;10.642;2022-12-26T07:31:55;7.80;99.90
15926;DHT22;8062;53.882;10.642;2022-12-26T07:33:16;7.80;99.90
15926;DHT22;8062;53.882;10.642;2022-12-26T07:34:36;7.70;99.90
15926;DHT22;8062;53.882;10.642;2022-12-26T07:36:00;7.80;99.90
15926;DHT22;8062;53.882;10.642;2022-12-26T07:37:19;7.80;99.90
15926;DHT22;8062;53.882;10.642;2022-12-26T07:38:39;7.80;99.90
15926;DHT22;8062;53.882;10.642;2022-12-26T07:39:59;7.70;99.90
15926;DHT22;8062;53.882;10.642;2022-12-26T07:41:18;7.70;99.90
15926;DHT22;8062;53.882;10.642;2022-12-26T07:42:57;7.80;99.90
15926;DHT22;8062;53.882;10.642;2022-12-26T07:44:16;7.70;99.90
15926;DHT22;8062;53.882;10.642;2022-12-26T07:45:36;7.80;99.90
15926;DHT22;8062;53.882;10.642;2022-12-26T07:46:56;7.80;99.90
15926;DHT22;8062;53.882;10.642;2022-12-26T07:48:17;7.80;99.90
15926;DHT22;8062;53.882;10.642;2022-12-26T07:49:36;7.80;99.90
15926;DHT22;8062;53.882;10.642;2022-12-26T07:51:00;7.80;99.90
15926;DHT22;8062;53.882;10.642;2022-12-26T07:52:20;7.80;99.90
15926;DHT22;8062;53.882;10.642;2022-12-26T07:53:39;7.80;99.90
15926;DHT22;8062;53.882;10.642;2022-12-26T07:54:59;7.80;99.90
15926;DHT22;8062;53.882;10.642;2022-12-26T07:56:19;7.80;99.90
15926;DHT22;8062;53.882;10.642;2022-12-26T07:57:38;7.80;99.90
15926;DHT22;8062;53.882;10.642;2022-12-26T07:58:58;7.80;99.90
15926;DHT22;8062;53.882;10.642;2022-12-26T08:00:18;7.80;99.90
15926;DHT22;8062;53.882;10.642;2022-12-26T08:01:38;7.90;99.90
15926;DHT22;8062;53.882;10.642;2022-12-26T08:02:57;7.90;99.90
15926;DHT22;8062;53.882;10.642;2022-12-26T08:04:17;7.90;99.90
15926;DHT22;8062;53.882;10.642;2022-12-26T08:05:36;7.90;99.90
15926;DHT22;8062;53.882;10.642;2022-12-26T08:06:56;7.90;99.90
15926;DHT22;8062;53.882;10.642;2022-12-26T08:08:15;7.90;99.90
15926;DHT22;8062;53.882;10.642;2022-12-26T08:09:35;7.90;99.90
15926;DHT22;8062;53.882;10.642;2022-12-26T08:11:03;7.90;99.90
15926;DHT22;8062;53.882;10.642;2022-12-26T08:12:23;7.90;99.90
15926;DHT22;8062;53.882;10.642;2022-12-26T08:13:45;7.90;99.90
15926;DHT22;8062;53.882;10.642;2022-12-26T08:15:05;7.90;99.90
15926;DHT22;8062;53.882;10.642;2022-12-26T08:16:25;7.90;99.90
15926;DHT22;8062;53.882;10.642;2022-12-26T08:17:45;8.00;99.90
15926;DHT22;8062;53.882;10.642;2022-12-26T08:19:04;8.00;99.90
15926;DHT22;8062;53.882;10.642;2022-12-26T08:20:24;8.00;99.90
15926;DHT22;8062;53.882;10.642;2022-12-26T08:21:44;7.90;99.90
15926;DHT22;8062;53.882;10.642;2022-12-26T08:23:03;8.00;99.90
15926;DHT22;8062;53.882;10.642;2022-12-26T08:24:23;8.00;99.90
15926;DHT22;8062;53.882;10.642;2022-12-26T08:25:42;8.00;99.90
15926;DHT22;8062;53.882;10.642;2022-12-26T08:27:03;8.00;99.90
15926;DHT22;8062;53.882;10.642;2022-12-26T08:28:23;8.00;99.90
15926;DHT22;8062;53.882;10.642;2022-12-26T08:29:42;8.00;99.90
15926;DHT22;8062;53.882;10.642;2022-12-26T08:31:09;8.10;99.90
15926;DHT22;8062;53.882;10.642;2022-12-26T08:32:29;8.10;99.90
15926;DHT22;8062;53.882;10.642;2022-12-26T08:33:49;8.10;99.90
15926;DHT22;8062;53.882;10.642;2022-12-26T08:35:09;8.10;99.90
15926;DHT22;8062;53.882;10.642;2022-12-26T08:36:28;8.20;99.90
15926;DHT22;8062;53.882;10.642;2022-12-26T08:37:48;8.10;99.90
15926;DHT22;8062;53.882;10.642;2022-12-26T08:39:07;8.10;99.90
15926;DHT22;8062;53.882;10.642;2022-12-26T08:40:27;8.20;99.90
15926;DHT22;8062;53.882;10.642;2022-12-26T08:41:46;8.20;99.90
15926;DHT22;8062;53.882;10.642;2022-12-26T08:43:06;8.20;99.90
15926;DHT22;8062;53.882;10.642;2022-12-26T08:44:26;8.20;99.90
15926;DHT22;8062;53.882;10.642;2022-12-26T08:45:46;8.20;99.90
15926;DHT22;8062;53.882;10.642;2022-12-26T08:47:05;8.30;99.90
15926;DHT22;8062;53.882;10.642;2022-12-26T08:48:25;8.30;99.90
15926;DHT22;8062;53.882;10.642;2022-12-26T08:49:45;8.20;99.90
15926;DHT22;8062;53.882;10.642;2022-12-26T08:51:10;8.30;99.90
15926;DHT22;8062;53.882;10.642;2022-12-26T08:52:30;8.30;99.90
15926;DHT22;8062;53.882;10.642;2022-12-26T08:53:51;8.30;99.90
15926;DHT22;8062;53.882;10.642;2022-12-26T08:55:11;8.30;99.90
15926;DHT22;8062;53.882;10.642;2022-12-26T08:56:32;8.30;99.90
15926;DHT22;8062;53.882;10.642;2022-12-26T08:57:51;8.40;99.90
15926;DHT22;8062;53.882;10.642;2022-12-26T08:59:11;8.30;99.90
15926;DHT22;8062;53.882;10.642;2022-12-26T09:00:30;8.30;99.90
15926;DHT22;8062;53.882;10.642;2022-12-26T09:01:50;8.40;99.90
15926;DHT22;8062;53.882;10.642;2022-12-26T09:03:09;8.40;99.90
15926;DHT22;8062;53.882;10.642;2022-12-26T09:04:29;8.40;99.90
15926;DHT22;8062;53.882;10.642;2022-12-26T09:05:49;8.40;99.90
15926;DHT22;8062;53.882;10.642;2022-12-26T09:07:09;8.40;99.90
15926;DHT22;8062;53.882;10.642;2022-12-26T09:08:29;8.40;99.90
15926;DHT22;8062;53.882;10.642;2022-12-26T09:09:49;8.40;99.90
15926;DHT22;8062;53.882;10.642;2022-12-26T09:11:11;8.40;99.90
15926;DHT22;8062;53.882;10.642;2022-12-26T09:12:31;8.40;99.90
15926;DHT22;8062;53.882;10.642;2022-12-26T09:13:50;8.40;99.90
15926;DHT22;8062;53.882;10.642;2022-12-26T09:15:10;8.40;99.90
15926;DHT22;8062;53.882;10.642;2022-12-26T09:16:37;8.40;99.90
15926;DHT22;8062;53.882;10.642;2022-12-26T09:18:00;8.40;99.90
15926;DHT22;8062;53.882;10.642;2022-12-26T09:19:20;8.40;99.90
15926;DHT22;8062;53.882;10.642;2022-12-26T09:20:40;8.50;99.90
15926;DHT22;8062;53.882;10.642;2022-12-26T09:22:00;8.50;99.90
15926;DHT22;8062;53.882;10.642;2022-12-26T09:23:39;8.50;99.90
15926;DHT22;8062;53.882;10.642;2022-12-26T09:24:59;8.60;99.90
15926;DHT22;8062;53.882;10.642;2022-12-26T09:26:19;8.50;99.90
15926;DHT22;8062;53.882;10.642;2022-12-26T09:27:38;8.50;99.90
15926;DHT22;8062;53.882;10.642;2022-12-26T09:28:58;8.60;99.90
15926;DHT22;8062;53.882;10.642;2022-12-26T09:30:18;8.60;99.90
15926;DHT22;8062;53.882;10.642;2022-12-26T09:31:39;8.60;99.90
15926;DHT22;8062;53.882;10.642;2022-12-26T09:32:58;8.60;99.90
15926;DHT22;8062;53.882;10.642;2022-12-26T09:34:18;8.70;99.90
15926;DHT22;8062;53.882;10.642;2022-12-26T09:35:41;8.70;99.90
15926;DHT22;8062;53.882;10.642;2022-12-26T09:37:00;8.70;99.90
15926;DHT22;8062;53.882;10.642;2022-12-26T09:38:20;8.60;99.90
15926;DHT22;8062;53.882;10.642;2022-12-26T09:39:40;8.60;99.90
15926;DHT22;8062;53.882;10.642;2022-12-26T09:41:26;8.60;99.90
15926;DHT22;8062;53.882;10.642;2022-12-26T09:43:07;8.70;99.90